createdAt,value
2022-12-23T00:02:23.469Z,18.53
2022-12-23T00:05:25.761Z,18.54
2022-12-23T00:08:28.128Z,18.52
2022-12-23T00:11:30.385Z,18.50
2022-12-23T00:14:51.091Z,18.52
2022-12-23T00:17:53.319Z,18.53
2022-12-23T00:21:08.815Z,18.53
2022-12-23T00:24:12.078Z,18.52
2022-12-23T00:27:14.250Z,18.53
2022-12-23T00:30:16.564Z,18.53
2022-12-23T00:33:21.206Z,18.52
2022-12-23T00:36:28.127Z,18.52
2022-12-23T00:39:54.661Z,18.51
2022-12-23T00:42:57.448Z,18.53
2022-12-23T00:45:59.777Z,18.52
2022-12-23T00:49:20.665Z,18.52
2022-12-23T00:52:22.791Z,18.52
2022-12-23T00:55:25.147Z,18.52
2022-12-23T00:58:27.491Z,18.51
2022-12-23T01:01:48.168Z,18.51
2022-12-23T01:05:08.960Z,18.51
2022-12-23T01:08:12.215Z,18.50
2022-12-23T01:11:14.370Z,18.50
2022-12-23T01:14:17.616Z,18.50
2022-12-23T01:17:19.876Z,18.51
2022-12-23T01:20:22.309Z,18.50
2022-12-23T01:23:24.415Z,18.50
2022-12-23T01:26:26.683Z,18.50
2022-12-23T01:29:29.835Z,18.50
2022-12-23T01:32:32.086Z,18.49
2022-12-23T01:35:34.277Z,18.49
2022-12-23T01:38:36.413Z,18.50
2022-12-23T01:41:57.287Z,18.51
2022-12-23T01:45:09.530Z,18.50
2022-12-23T01:48:31.248Z,18.51
2022-12-23T01:51:33.446Z,18.50
2022-12-23T01:54:36.154Z,18.51
2022-12-23T01:57:42.121Z,18.51
2022-12-23T02:01:05.287Z,18.50
2022-12-23T02:04:10.609Z,18.50
2022-12-23T02:07:31.944Z,18.50
2022-12-23T02:10:53.206Z,18.50
2022-12-23T02:14:52.772Z,18.50
2022-12-23T02:18:22.212Z,18.51
2022-12-23T02:21:32.803Z,18.51
2022-12-23T02:25:25.622Z,18.49
2022-12-23T02:28:39.627Z,18.50
2022-12-23T02:32:00.594Z,18.50
2022-12-23T02:35:29.375Z,18.49
2022-12-23T02:38:58.852Z,18.50
2022-12-23T02:42:13.603Z,18.50
2022-12-23T02:45:26.518Z,18.50
2022-12-23T02:48:37.408Z,18.51
2022-12-23T02:51:42.850Z,18.51
2022-12-23T02:54:57.587Z,18.50
2022-12-23T02:58:04.383Z,18.50
2022-12-23T03:01:07.229Z,18.50
2022-12-23T03:04:09.522Z,18.50
2022-12-23T03:07:18.878Z,18.50
2022-12-23T03:10:52.122Z,18.49
2022-12-23T03:14:09.476Z,18.50
2022-12-23T03:17:14.406Z,18.49
2022-12-23T03:20:36.639Z,18.51
2022-12-23T03:23:55.535Z,18.50
2022-12-23T03:27:03.283Z,18.50
2022-12-23T03:30:12.260Z,18.50
2022-12-23T03:33:26.776Z,18.50
2022-12-23T03:36:32.879Z,18.50
2022-12-23T03:39:41.192Z,18.50
2022-12-23T03:42:45.378Z,18.48
2022-12-23T03:45:56.149Z,18.50
2022-12-23T03:49:01.471Z,18.48
2022-12-23T03:52:08.065Z,18.48
2022-12-23T03:55:14.972Z,18.49
2022-12-23T03:58:40.178Z,18.50
2022-12-23T04:02:11.383Z,18.49
2022-12-23T04:05:22.647Z,18.49
2022-12-23T04:08:28.599Z,18.49
2022-12-23T04:11:30.743Z,18.48
2022-12-23T04:14:34.164Z,18.48
2022-12-23T04:17:36.348Z,18.49
2022-12-23T04:20:38.498Z,18.49
2022-12-23T04:23:40.649Z,18.49
2022-12-23T04:26:42.870Z,18.49
2022-12-23T04:29:45.170Z,18.49
2022-12-23T04:32:47.421Z,18.49
2022-12-23T04:35:49.572Z,18.48
2022-12-23T04:38:51.733Z,18.48
2022-12-23T04:41:53.836Z,18.49
2022-12-23T04:44:55.967Z,18.48
2022-12-23T04:47:58.519Z,18.49
2022-12-23T04:51:04.708Z,18.49
2022-12-23T04:54:06.859Z,18.48
2022-12-23T04:57:08.993Z,18.48
2022-12-23T05:00:11.552Z,18.49
2022-12-23T05:03:13.831Z,18.49
2022-12-23T05:06:16.164Z,18.49
2022-12-23T05:09:18.410Z,18.48
2022-12-23T05:12:20.560Z,18.48
2022-12-23T05:15:22.709Z,18.46
2022-12-23T05:18:24.897Z,18.48
2022-12-23T05:21:27.033Z,18.48
2022-12-23T05:24:29.196Z,18.49
2022-12-23T05:27:31.296Z,18.48
2022-12-23T05:30:33.784Z,18.48
2022-12-23T05:33:36.043Z,18.48
2022-12-23T05:36:38.264Z,18.48
2022-12-23T05:39:40.498Z,18.48
2022-12-23T05:42:42.637Z,18.48
2022-12-23T05:45:47.035Z,18.48
2022-12-23T05:48:49.261Z,18.48
2022-12-23T05:51:51.416Z,18.48
2022-12-23T05:54:53.665Z,18.48
2022-12-23T05:57:55.777Z,18.48
2022-12-23T06:00:57.938Z,18.49
2022-12-23T06:04:00.165Z,18.49
2022-12-23T06:07:02.435Z,18.48
2022-12-23T06:10:06.242Z,18.47
2022-12-23T06:13:08.475Z,18.48
2022-12-23T06:16:10.673Z,18.48
2022-12-23T06:19:12.921Z,18.47
2022-12-23T06:22:15.830Z,18.48
2022-12-23T06:25:18.027Z,18.48
2022-12-23T06:28:20.280Z,18.47
2022-12-23T06:31:22.440Z,18.48
2022-12-23T06:34:24.613Z,18.48
2022-12-23T06:37:26.706Z,18.47
2022-12-23T06:40:29.673Z,18.48
2022-12-23T06:43:31.844Z,18.48
2022-12-23T06:46:34.147Z,18.47
2022-12-23T06:49:36.279Z,18.48
2022-12-23T06:52:38.396Z,18.47
2022-12-23T06:55:40.478Z,18.48
2022-12-23T06:58:42.576Z,18.48
2022-12-23T07:01:44.788Z,18.48
2022-12-23T07:04:47.028Z,18.48
2022-12-23T07:07:49.183Z,18.47
2022-12-23T07:10:57.566Z,18.48
2022-12-23T07:14:00.397Z,18.48
2022-12-23T07:17:02.613Z,18.49
2022-12-23T07:20:05.848Z,18.45
2022-12-23T07:23:07.995Z,18.47
2022-12-23T07:26:10.113Z,18.47
2022-12-23T07:29:12.186Z,18.48
2022-12-23T07:32:14.361Z,18.49
2022-12-23T07:35:16.819Z,18.48
2022-12-23T07:38:18.915Z,18.48
2022-12-23T07:41:21.122Z,18.49
2022-12-23T07:44:23.270Z,18.48
2022-12-23T07:47:25.420Z,18.49
2022-12-23T07:50:28.175Z,18.49
2022-12-23T07:53:30.565Z,18.50
2022-12-23T07:56:32.732Z,18.49
2022-12-23T07:59:34.838Z,18.48
2022-12-23T08:02:37.242Z,18.49
2022-12-23T08:05:39.412Z,18.49
2022-12-23T08:08:43.628Z,18.49
2022-12-23T08:11:45.935Z,18.50
2022-12-23T08:14:48.519Z,18.49
2022-12-23T08:17:50.706Z,18.50
2022-12-23T08:21:00.680Z,18.50
2022-12-23T08:24:02.810Z,18.50
2022-12-23T08:27:04.925Z,18.51
2022-12-23T08:30:07.597Z,18.52
2022-12-23T08:33:09.766Z,18.53
2022-12-23T08:36:22.478Z,18.53
2022-12-23T08:39:25.472Z,18.50
2022-12-23T08:42:27.576Z,18.52
2022-12-23T08:45:29.734Z,18.51
2022-12-23T08:48:33.197Z,18.52
2022-12-23T08:51:36.335Z,18.52
2022-12-23T08:54:38.474Z,18.52
2022-12-23T08:57:40.682Z,18.53
2022-12-23T09:00:42.916Z,18.52
2022-12-23T09:03:45.339Z,18.53
2022-12-23T09:06:47.550Z,18.52
2022-12-23T09:09:49.684Z,18.53
2022-12-23T09:12:51.838Z,18.53
2022-12-23T09:15:53.983Z,18.54
2022-12-23T09:18:56.581Z,18.53
2022-12-23T09:21:58.724Z,18.53
2022-12-23T09:25:05.064Z,18.54
2022-12-23T09:28:07.509Z,18.54
2022-12-23T09:31:10.972Z,18.54
2022-12-23T09:34:13.195Z,18.54
2022-12-23T09:37:16.793Z,18.54
2022-12-23T09:40:21.427Z,18.54
2022-12-23T09:43:39.941Z,18.54
2022-12-23T09:47:07.475Z,18.53
2022-12-23T09:50:26.923Z,18.53
2022-12-23T09:54:17.082Z,18.54
2022-12-23T09:57:36.507Z,18.54
2022-12-23T10:00:42.887Z,18.54
2022-12-23T10:03:59.772Z,18.53
2022-12-23T10:07:04.966Z,18.53
2022-12-23T10:10:43.247Z,18.54
2022-12-23T10:13:47.699Z,18.53
2022-12-23T10:16:52.997Z,18.53
2022-12-23T10:19:58.417Z,18.54
2022-12-23T10:23:00.752Z,18.53
2022-12-23T10:26:08.646Z,18.53
2022-12-23T10:29:19.228Z,18.53
2022-12-23T10:32:55.500Z,18.53
2022-12-23T10:36:16.412Z,18.53
2022-12-23T10:39:47.047Z,18.54
2022-12-23T10:43:10.922Z,18.53
2022-12-23T10:46:30.073Z,18.54
2022-12-23T10:49:32.176Z,18.54
2022-12-23T10:52:36.343Z,18.54
2022-12-23T10:55:39.050Z,18.54
2022-12-23T10:58:42.574Z,18.54
2022-12-23T11:01:47.719Z,18.54
2022-12-23T11:04:50.399Z,18.54
2022-12-23T11:07:52.607Z,18.53
2022-12-23T11:10:55.220Z,18.54
2022-12-23T11:13:57.321Z,18.53
2022-12-23T11:16:59.416Z,18.52
2022-12-23T11:20:10.454Z,18.52
2022-12-23T11:23:27.551Z,18.51
2022-12-23T11:26:29.749Z,18.51
2022-12-23T11:29:37.628Z,18.49
2022-12-23T11:32:42.524Z,18.47
2022-12-23T11:35:45.396Z,18.46
2022-12-23T11:38:54.055Z,18.45
2022-12-23T11:42:06.195Z,18.43
2022-12-23T11:45:08.975Z,18.44
2022-12-23T11:48:28.196Z,18.42
2022-12-23T11:51:30.322Z,18.41
2022-12-23T11:54:33.687Z,18.39
2022-12-23T11:57:42.364Z,18.36
2022-12-23T12:00:55.482Z,18.35
2022-12-23T12:04:01.581Z,18.33
2022-12-23T12:07:05.023Z,18.32
2022-12-23T12:10:13.737Z,18.31
2022-12-23T12:13:25.329Z,18.30
2022-12-23T12:16:30.536Z,18.28
2022-12-23T12:19:40.871Z,18.27
2022-12-23T12:22:51.861Z,18.27
2022-12-23T12:26:06.668Z,18.25
2022-12-23T12:29:27.108Z,18.24
2022-12-23T12:32:47.992Z,18.23
2022-12-23T12:36:24.896Z,18.22
2022-12-23T12:39:34.251Z,18.21
2022-12-23T12:42:40.719Z,18.20
2022-12-23T12:45:50.812Z,18.19
2022-12-23T12:48:57.749Z,18.18
2022-12-23T12:52:10.239Z,18.17
2022-12-23T12:55:28.990Z,18.17
2022-12-23T12:58:31.179Z,18.15
2022-12-23T13:01:46.177Z,18.14
2022-12-23T13:05:23.005Z,18.13
2022-12-23T13:08:51.130Z,18.12
2022-12-23T13:12:04.516Z,18.12
2022-12-23T13:15:20.581Z,18.11
2022-12-23T13:18:41.497Z,18.10
2022-12-23T13:21:48.545Z,18.10
2022-12-23T13:25:03.093Z,18.10
2022-12-23T13:28:15.575Z,18.08
2022-12-23T13:32:18.359Z,18.07
2022-12-23T13:35:35.574Z,18.07
2022-12-23T13:38:59.661Z,18.06
2022-12-23T13:42:05.978Z,18.06
2022-12-23T13:45:16.836Z,18.05
2022-12-23T13:48:43.420Z,18.04
2022-12-23T13:51:53.441Z,18.03
2022-12-23T13:55:11.585Z,18.02
2022-12-23T13:58:16.738Z,18.02
2022-12-23T14:01:22.068Z,18.01
2022-12-23T14:04:33.944Z,18.02
2022-12-23T14:07:36.219Z,18.01
2022-12-23T14:10:39.008Z,18.00
2022-12-23T14:14:46.596Z,18.00
2022-12-23T14:18:04.449Z,17.99
2022-12-23T14:21:45.520Z,17.98
2022-12-23T14:25:18.772Z,17.97
2022-12-23T14:28:39.638Z,17.96
2022-12-23T14:31:44.282Z,17.97
2022-12-23T14:35:18.438Z,17.96
2022-12-23T14:38:28.838Z,17.96
2022-12-23T14:41:50.437Z,17.95
2022-12-23T14:44:52.780Z,17.93
2022-12-23T14:47:54.965Z,17.94
2022-12-23T14:51:24.183Z,17.93
2022-12-23T14:55:06.031Z,17.93
2022-12-23T14:58:27.000Z,17.92
2022-12-23T15:01:40.929Z,17.92
2022-12-23T15:04:48.047Z,17.92
2022-12-23T15:07:50.469Z,17.92
2022-12-23T15:10:53.531Z,17.90
2022-12-23T15:13:58.798Z,17.90
2022-12-23T15:17:15.609Z,17.90
2022-12-23T15:20:23.342Z,17.89
2022-12-23T15:23:25.498Z,17.89
2022-12-23T15:26:30.928Z,17.90
2022-12-23T15:29:33.150Z,17.88
2022-12-23T15:32:35.330Z,17.88
2022-12-23T15:35:39.708Z,17.87
2022-12-23T15:38:42.024Z,17.87
2022-12-23T15:41:45.666Z,17.87
2022-12-23T15:44:47.818Z,17.86
2022-12-23T15:47:50.682Z,17.86
2022-12-23T15:50:56.090Z,17.86
2022-12-23T15:54:02.034Z,17.86
2022-12-23T15:57:05.015Z,17.85
2022-12-23T16:00:18.747Z,17.85
2022-12-23T16:03:28.085Z,17.85
2022-12-23T16:06:33.129Z,17.83
2022-12-23T16:09:36.654Z,17.83
2022-12-23T16:12:40.458Z,17.83
2022-12-23T16:15:44.315Z,17.83
2022-12-23T16:18:47.784Z,17.82
2022-12-23T16:21:50.466Z,17.83
2022-12-23T16:25:09.791Z,17.82
2022-12-23T16:28:15.115Z,17.81
2022-12-23T16:31:19.045Z,17.80
2022-12-23T16:34:21.384Z,17.81
2022-12-23T16:37:23.554Z,17.81
2022-12-23T16:40:25.741Z,17.80
2022-12-23T16:43:27.926Z,17.80
2022-12-23T16:46:34.179Z,17.80
2022-12-23T16:49:37.399Z,17.78
2022-12-23T16:52:39.898Z,17.79
2022-12-23T16:55:50.292Z,17.78
2022-12-23T16:58:54.766Z,17.78
2022-12-23T17:02:03.167Z,17.78
2022-12-23T17:05:07.792Z,17.78
2022-12-23T17:08:10.131Z,17.77
2022-12-23T17:11:27.724Z,17.77
2022-12-23T17:14:32.993Z,17.77
2022-12-23T17:17:35.832Z,17.77
2022-12-23T17:20:38.000Z,17.76
2022-12-23T17:23:40.119Z,17.76
2022-12-23T17:26:42.320Z,17.76
2022-12-23T17:29:44.552Z,17.76
2022-12-23T17:32:50.371Z,17.75
2022-12-23T17:35:52.496Z,17.74
2022-12-23T17:38:54.991Z,17.75
2022-12-23T17:41:57.412Z,17.74
2022-12-23T17:44:59.535Z,17.73
2022-12-23T17:48:01.694Z,17.73
2022-12-23T17:51:03.843Z,17.73
2022-12-23T17:54:06.484Z,17.72
2022-12-23T17:57:19.139Z,17.72
2022-12-23T18:00:29.921Z,17.72
2022-12-23T18:03:36.303Z,17.72
2022-12-23T18:06:38.450Z,17.70
2022-12-23T18:09:40.623Z,17.71
2022-12-23T18:12:45.613Z,17.71
2022-12-23T18:15:47.830Z,17.72
2022-12-23T18:18:50.037Z,17.70
2022-12-23T18:21:52.465Z,17.71
2022-12-23T18:24:59.086Z,17.70
2022-12-23T18:28:01.747Z,17.70
2022-12-23T18:31:04.084Z,17.69
2022-12-23T18:34:06.321Z,17.70
2022-12-23T18:37:09.004Z,17.69
2022-12-23T18:40:11.538Z,17.68
2022-12-23T18:43:24.485Z,17.68
2022-12-23T18:46:26.875Z,17.69
2022-12-23T18:49:29.023Z,17.68
2022-12-23T18:52:31.111Z,17.68
2022-12-23T18:55:33.671Z,17.68
2022-12-23T18:58:35.774Z,17.68
2022-12-23T19:01:37.894Z,17.68
2022-12-23T19:04:40.128Z,17.66
2022-12-23T19:07:42.466Z,17.67
2022-12-23T19:10:46.146Z,17.67
2022-12-23T19:13:48.316Z,17.67
2022-12-23T19:16:52.407Z,17.66
2022-12-23T19:19:54.837Z,17.67
2022-12-23T19:22:56.965Z,17.65
2022-12-23T19:25:59.087Z,17.65
2022-12-23T19:29:01.245Z,17.66
2022-12-23T19:32:03.459Z,17.65
2022-12-23T19:35:06.103Z,17.64
2022-12-23T19:38:08.252Z,17.65
2022-12-23T19:41:10.659Z,17.64
2022-12-23T19:44:13.012Z,17.62
2022-12-23T19:47:15.177Z,17.64
2022-12-23T19:50:18.879Z,17.63
2022-12-23T19:53:20.998Z,17.64
2022-12-23T19:56:23.145Z,17.62
2022-12-23T19:59:25.313Z,17.63
2022-12-23T20:02:27.540Z,17.61
2022-12-23T20:05:29.769Z,17.61
2022-12-23T20:08:33.202Z,17.61
2022-12-23T20:11:37.568Z,17.61
2022-12-23T20:14:39.717Z,17.61
2022-12-23T20:17:41.804Z,17.59
2022-12-23T20:20:44.445Z,17.60
2022-12-23T20:23:46.543Z,17.61
2022-12-23T20:26:48.751Z,17.61
2022-12-23T20:29:50.965Z,17.60
2022-12-23T20:32:53.138Z,17.60
2022-12-23T20:35:55.356Z,17.60
2022-12-23T20:38:58.001Z,17.59
2022-12-23T20:42:00.112Z,17.59
2022-12-23T20:45:02.439Z,17.58
2022-12-23T20:48:04.900Z,17.58
2022-12-23T20:51:12.249Z,17.58
2022-12-23T20:54:14.366Z,17.58
2022-12-23T20:57:16.546Z,17.58
2022-12-23T21:00:18.850Z,17.57
2022-12-23T21:03:21.107Z,17.58
2022-12-23T21:06:24.001Z,17.57
2022-12-23T21:09:26.204Z,17.57
2022-12-23T21:12:28.377Z,17.57
2022-12-23T21:15:34.136Z,17.57
2022-12-23T21:18:40.219Z,17.56
2022-12-23T21:21:42.349Z,17.57
2022-12-23T21:24:44.493Z,17.56
2022-12-23T21:27:46.656Z,17.55
2022-12-23T21:30:48.821Z,17.56
2022-12-23T21:33:51.746Z,17.55
2022-12-23T21:36:54.018Z,17.55
2022-12-23T21:39:56.241Z,17.54
2022-12-23T21:42:59.966Z,17.54
2022-12-23T21:46:06.402Z,17.55
2022-12-23T21:49:09.395Z,17.54
2022-12-23T21:52:11.576Z,17.54
2022-12-23T21:55:15.995Z,17.54
2022-12-23T21:58:18.091Z,17.54
2022-12-23T22:01:21.004Z,17.54
2022-12-23T22:04:23.237Z,17.54
2022-12-23T22:07:25.366Z,17.53
2022-12-23T22:10:27.525Z,17.52
2022-12-23T22:13:29.691Z,17.51
2022-12-23T22:16:32.719Z,17.51
2022-12-23T22:19:34.954Z,17.51
2022-12-23T22:22:37.033Z,17.51
2022-12-23T22:25:39.180Z,17.52
2022-12-23T22:28:41.373Z,17.51
2022-12-23T22:31:48.853Z,17.50
2022-12-23T22:34:51.089Z,17.50
2022-12-23T22:37:53.366Z,17.50
2022-12-23T22:40:55.686Z,17.50
2022-12-23T22:43:58.584Z,17.49
2022-12-23T22:47:00.974Z,17.50
2022-12-23T22:50:03.495Z,17.50
2022-12-23T22:53:05.660Z,17.48
2022-12-23T22:56:08.042Z,17.49
2022-12-23T22:59:21.068Z,17.48
2022-12-23T23:02:24.925Z,17.49
2022-12-23T23:05:27.182Z,17.49
2022-12-23T23:08:30.614Z,17.49
2022-12-23T23:11:33.238Z,17.49
2022-12-23T23:14:52.413Z,17.48
2022-12-23T23:17:55.829Z,17.48
2022-12-23T23:20:58.035Z,17.47
2022-12-23T23:24:00.129Z,17.47
2022-12-23T23:27:02.237Z,17.48
2022-12-23T23:30:04.895Z,17.47
2022-12-23T23:33:08.676Z,17.46
2022-12-23T23:36:11.237Z,17.48
2022-12-23T23:39:13.625Z,17.47
2022-12-23T23:42:17.830Z,17.45
2022-12-23T23:45:20.237Z,17.46
2022-12-23T23:48:22.465Z,17.45
2022-12-23T23:51:24.598Z,17.46
2022-12-23T23:54:26.771Z,17.46
2022-12-23T23:57:29.193Z,17.45
